Time,TemperatureF,DewpointF,PressureIn,WindDirection,WindDirectionDegrees,WindSpeedMPH,WindSpeedGustMPH,Humidity,HourlyPrecipIn,Conditions,Clouds,dailyrainin,SoftwareType,DateUTC
2013-09-15 00:01:00,42.4,40.2,30.15,NW,317,0.0,0.0,92,0.00,,,0.00,Wunderground v.1.15,2013-09-15 04:01:00,
2013-09-15 00:02:00,42.4,40.2,30.15,NW,317,0.0,0.0,92,0.00,,,0.00,Wunderground v.1.15,2013-09-15 04:02:00,
2013-09-15 00:03:00,42.4,40.2,30.15,NW,317,0.0,0.0,92,0.00,,,0.00,Wunderground v.1.15,2013-09-15 04:03:00,
2013-09-15 00:05:00,42.4,40.2,30.15,NW,317,0.0,0.0,92,0.00,,,0.00,Wunderground v.1.15,2013-09-15 04:05:00,
2013-09-15 00:08:00,42.4,40.5,30.15,NW,317,0.0,0.0,93,0.00,,,0.00,Wunderground v.1.15,2013-09-15 04:08:00,
2013-09-15 00:13:00,42.7,40.8,30.15,NW,317,0.0,0.0,93,0.00,,,0.00,Wunderground v.1.15,2013-09-15 04:13:00,
2013-09-15 00:19:00,43.3,41.7,30.15,NW,317,0.0,0.0,94,0.00,,,0.00,Wunderground v.1.15,2013-09-15 04:19:00,
2013-09-15 00:24:00,43.3,41.4,30.15,NW,317,0.0,0.0,93,0.00,,,0.00,Wunderground v.1.15,2013-09-15 04:24:00,
2013-09-15 00:31:00,42.5,40.3,30.16,NW,317,0.0,0.0,92,0.00,,,0.00,Wunderground v.1.15,2013-09-15 04:31:00,
2013-09-15 00:36:00,42.2,40.0,30.15,NW,317,0.0,0.0,92,0.00,,,0.00,Wunderground v.1.15,2013-09-15 04:36:00,
2013-09-15 00:41:00,42.1,39.9,30.15,NW,317,0.0,0.0,92,0.00,,,0.00,Wunderground v.1.15,2013-09-15 04:41:00,
2013-09-15 00:47:00,42.1,40.2,30.15,NW,317,0.0,0.0,93,0.00,,,0.00,Wunderground v.1.15,2013-09-15 04:47:00,
2013-09-15 00:52:00,42.6,41.0,30.16,NW,317,0.0,0.0,94,0.00,,,0.00,Wunderground v.1.15,2013-09-15 04:52:00,
2013-09-15 00:58:00,42.4,40.5,30.16,NW,317,0.0,0.0,93,0.00,,,0.00,Wunderground v.1.15,2013-09-15 04:58:00,
2013-09-15 01:05:00,41.9,40.0,30.16,NW,317,0.0,0.0,93,0.00,,,0.00,Wunderground v.1.15,2013-09-15 05:05:00,
2013-09-15 01:10:00,41.8,39.9,30.16,NW,317,0.0,0.0,93,0.00,,,0.00,Wunderground v.1.15,2013-09-15 05:10:00,
2013-09-15 01:16:00,41.7,39.8,30.16,NW,317,0.0,0.0,93,0.00,,,0.00,Wunderground v.1.15,2013-09-15 05:16:00,
2013-09-15 01:21:00,42.1,40.5,30.16,NW,317,0.0,0.0,94,0.00,,,0.00,Wunderground v.1.15,2013-09-15 05:21:00,
2013-09-15 01:27:00,42.0,40.1,30.16,NW,317,0.0,0.0,93,0.00,,,0.00,Wunderground v.1.15,2013-09-15 05:27:00,
2013-09-15 01:38:00,40.9,40.4,30.16,NW,317,0.0,0.0,98,0.00,,,0.00,Wunderground v.1.15,2013-09-15 05:38:00,
2013-09-15 01:43:00,40.9,39.0,30.16,NW,317,0.0,0.0,93,0.00,,,0.00,Wunderground v.1.15,2013-09-15 05:43:00,
2013-09-15 01:49:00,40.9,39.0,30.16,NW,317,0.0,0.0,93,0.00,,,0.00,Wunderground v.1.15,2013-09-15 05:49:00,
2013-09-15 01:55:00,40.7,38.8,30.16,NW,317,0.0,0.0,93,0.00,,,0.00,Wunderground v.1.15,2013-09-15 05:55:00,
2013-09-15 02:01:00,40.4,38.5,30.16,NW,317,0.0,0.0,93,0.00,,,0.00,Wunderground v.1.15,2013-09-15 06:01:00,
2013-09-15 02:06:00,40.4,38.8,30.16,NW,317,0.0,0.0,94,0.00,,,0.00,Wunderground v.1.15,2013-09-15 06:06:00,
2013-09-15 02:11:00,40.6,39.0,30.16,NW,317,0.0,0.0,94,0.00,,,0.00,Wunderground v.1.15,2013-09-15 06:11:00,
2013-09-15 02:16:00,40.9,39.3,30.16,NW,317,0.0,0.0,94,0.00,,,0.00,Wunderground v.1.15,2013-09-15 06:16:00,
2013-09-15 02:22:00,40.7,39.1,30.16,NW,317,0.0,0.0,94,0.00,,,0.00,Wunderground v.1.15,2013-09-15 06:22:00,
2013-09-15 02:28:00,40.4,38.8,30.16,NW,317,0.0,0.0,94,0.00,,,0.00,Wunderground v.1.15,2013-09-15 06:28:00,
2013-09-15 02:35:00,40.2,38.6,30.16,NW,317,0.0,0.0,94,0.00,,,0.00,Wunderground v.1.15,2013-09-15 06:35:00,
2013-09-15 02:41:00,40.1,38.5,30.16,NW,317,0.0,0.0,94,0.00,,,0.00,Wunderground v.1.15,2013-09-15 06:41:00,
2013-09-15 02:47:00,39.8,38.2,30.16,NW,317,0.0,0.0,94,0.00,,,0.00,Wunderground v.1.15,2013-09-15 06:47:00,
2013-09-15 02:53:00,40.2,38.9,30.16,NW,317,0.0,0.0,95,0.00,,,0.00,Wunderground v.1.15,2013-09-15 06:53:00,
2013-09-15 02:59:00,40.8,39.5,30.16,NW,317,0.0,0.0,95,0.00,,,0.00,Wunderground v.1.15,2013-09-15 06:59:00,
2013-09-15 03:05:00,40.9,39.6,30.16,NW,317,0.0,0.0,95,0.00,,,0.00,Wunderground v.1.15,2013-09-15 07:05:00,
2013-09-15 03:10:00,40.6,39.0,30.16,NW,317,0.0,0.0,94,0.00,,,0.00,Wunderground v.1.15,2013-09-15 07:10:00,
2013-09-15 03:16:00,39.7,38.1,30.16,NW,317,0.0,1.0,94,0.00,,,0.00,Wunderground v.1.15,2013-09-15 07:16:00,
2013-09-15 03:21:00,39.3,37.7,30.16,NW,317,0.0,0.0,94,0.00,,,0.00,Wunderground v.1.15,2013-09-15 07:21:00,
2013-09-15 03:27:00,39.1,37.5,30.16,NW,317,0.0,0.0,94,0.00,,,0.00,Wunderground v.1.15,2013-09-15 07:27:00,
2013-09-15 03:32:00,39.1,37.5,30.16,NW,317,0.0,0.0,94,0.00,,,0.00,Wunderground v.1.15,2013-09-15 07:32:00,
2013-09-15 03:37:00,39.0,37.4,30.17,NW,317,0.0,0.0,94,0.00,,,0.00,Wunderground v.1.15,2013-09-15 07:37:00,
2013-09-15 03:42:00,39.1,37.5,30.16,NW,317,0.0,0.0,94,0.00,,,0.00,Wunderground v.1.15,2013-09-15 07:42:00,
2013-09-15 03:49:00,39.1,37.5,30.17,NW,317,0.0,0.0,94,0.00,,,0.00,Wunderground v.1.15,2013-09-15 07:49:00,
2013-09-15 03:54:00,39.1,37.5,30.16,NW,317,0.0,0.0,94,0.00,,,0.00,Wunderground v.1.15,2013-09-15 07:54:00,
2013-09-15 03:59:00,39.2,37.9,30.16,NW,317,0.0,0.0,95,0.00,,,0.00,Wunderground v.1.15,2013-09-15 07:59:00,
2013-09-15 04:05:00,39.0,37.4,30.16,NW,317,0.0,0.0,94,0.00,,,0.00,Wunderground v.1.15,2013-09-15 08:05:00,
2013-09-15 04:10:00,39.0,37.7,30.17,NW,317,0.0,0.0,95,0.00,,,0.00,Wunderground v.1.15,2013-09-15 08:10:00,
2013-09-15 04:15:00,39.0,37.7,30.17,NW,317,0.0,0.0,95,0.00,,,0.00,Wunderground v.1.15,2013-09-15 08:15:00,
2013-09-15 04:21:00,39.0,37.7,30.16,NW,317,0.0,0.0,95,0.00,,,0.00,Wunderground v.1.15,2013-09-15 08:21:00,
2013-09-15 04:26:00,39.2,37.9,30.16,NW,317,0.0,0.0,95,0.00,,,0.00,Wunderground v.1.15,2013-09-15 08:26:00,
2013-09-15 04:31:00,39.1,37.8,30.16,NW,317,0.0,0.0,95,0.00,,,0.00,Wunderground v.1.15,2013-09-15 08:31:00,
2013-09-15 04:36:00,38.7,37.1,30.16,NW,317,0.0,0.0,94,0.00,,,0.00,Wunderground v.1.15,2013-09-15 08:36:00,
2013-09-15 04:42:00,38.4,36.8,30.17,NW,317,0.0,0.0,94,0.00,,,0.00,Wunderground v.1.15,2013-09-15 08:42:00,
2013-09-15 04:47:00,38.4,37.1,30.17,NW,317,0.0,0.0,95,0.00,,,0.00,Wunderground v.1.15,2013-09-15 08:47:00,
2013-09-15 04:52:00,38.6,37.3,30.17,NW,317,0.0,0.0,95,0.00,,,0.00,Wunderground v.1.15,2013-09-15 08:52:00,
2013-09-15 04:58:00,38.7,37.4,30.17,NW,317,0.0,0.0,95,0.00,,,0.00,Wunderground v.1.15,2013-09-15 08:58:00,
2013-09-15 05:04:00,38.7,37.4,30.17,NW,317,0.0,0.0,95,0.00,,,0.00,Wunderground v.1.15,2013-09-15 09:04:00,
2013-09-15 05:09:00,38.9,37.6,30.16,NW,317,0.0,0.0,95,0.00,,,0.00,Wunderground v.1.15,2013-09-15 09:09:00,
2013-09-15 05:14:00,39.5,38.5,30.16,NW,317,0.0,0.0,96,0.00,,,0.00,Wunderground v.1.15,2013-09-15 09:14:00,
2013-09-15 05:20:00,39.8,38.5,30.17,NW,317,0.0,0.0,95,0.00,,,0.00,Wunderground v.1.15,2013-09-15 09:20:00,
2013-09-15 05:25:00,39.6,38.3,30.17,NW,317,0.0,0.0,95,0.00,,,0.00,Wunderground v.1.15,2013-09-15 09:25:00,
2013-09-15 05:31:00,39.5,38.2,30.17,NW,317,0.0,0.0,95,0.00,,,0.00,Wunderground v.1.15,2013-09-15 09:31:00,
2013-09-15 05:37:00,39.1,37.8,30.17,NW,317,0.0,0.0,95,0.00,,,0.00,Wunderground v.1.15,2013-09-15 09:37:00,
2013-09-15 05:43:00,38.6,37.3,30.18,NW,317,0.0,0.0,95,0.00,,,0.00,Wunderground v.1.15,2013-09-15 09:43:00,
2013-09-15 05:49:00,38.8,37.5,30.18,NW,317,0.0,0.0,95,0.00,,,0.00,Wunderground v.1.15,2013-09-15 09:49:00,
2013-09-15 05:55:00,38.7,37.4,30.18,NW,317,0.0,0.0,95,0.00,,,0.00,Wunderground v.1.15,2013-09-15 09:55:00,
2013-09-15 06:00:00,38.7,37.4,30.18,NW,317,0.0,0.0,95,0.00,,,0.00,Wunderground v.1.15,2013-09-15 10:00:00,
2013-09-15 06:06:00,38.7,37.4,30.18,NW,317,0.0,0.0,95,0.00,,,0.00,Wunderground v.1.15,2013-09-15 10:06:00,
2013-09-15 06:12:00,38.7,37.4,30.18,NW,317,0.0,0.0,95,0.00,,,0.00,Wunderground v.1.15,2013-09-15 10:12:00,
2013-09-15 06:20:00,38.9,37.6,30.18,NW,317,0.0,0.0,95,0.00,,,0.00,Wunderground v.1.15,2013-09-15 10:20:00,
2013-09-15 06:26:00,39.2,38.2,30.18,NW,317,0.0,0.0,96,0.00,,,0.00,Wunderground v.1.15,2013-09-15 10:26:00,
2013-09-15 06:32:00,39.5,38.5,30.18,NW,317,0.0,0.0,96,0.00,,,0.00,Wunderground v.1.15,2013-09-15 10:32:00,
2013-09-15 06:37:00,39.5,38.5,30.18,NW,317,0.0,0.0,96,0.00,,,0.00,Wunderground v.1.15,2013-09-15 10:37:00,
2013-09-15 06:42:00,39.3,38.0,30.18,NW,317,0.0,0.0,95,0.00,,,0.00,Wunderground v.1.15,2013-09-15 10:42:00,
2013-09-15 06:49:00,39.1,37.8,30.18,NW,317,0.0,0.0,95,0.00,,,0.00,Wunderground v.1.15,2013-09-15 10:49:00,
2013-09-15 06:55:00,38.9,37.6,30.18,NW,317,0.0,0.0,95,0.00,,,0.00,Wunderground v.1.15,2013-09-15 10:55:00,
2013-09-15 07:01:00,38.8,37.5,30.18,NW,317,0.0,0.0,95,0.00,,,0.00,Wunderground v.1.15,2013-09-15 11:01:00,
2013-09-15 07:06:00,38.7,37.4,30.19,NW,317,0.0,0.0,95,0.00,,,0.00,Wunderground v.1.15,2013-09-15 11:06:00,
2013-09-15 07:11:00,38.7,37.4,30.19,NW,317,0.0,0.0,95,0.00,,,0.00,Wunderground v.1.15,2013-09-15 11:11:00,
2013-09-15 07:17:00,38.9,37.6,30.19,NW,317,0.0,0.0,95,0.00,,,0.00,Wunderground v.1.15,2013-09-15 11:17:00,
2013-09-15 07:22:00,39.0,37.7,30.20,NW,317,0.0,0.0,95,0.00,,,0.00,Wunderground v.1.15,2013-09-15 11:22:00,
2013-09-15 07:27:00,39.1,37.8,30.20,NW,317,0.0,0.0,95,0.00,,,0.00,Wunderground v.1.15,2013-09-15 11:27:00,
2013-09-15 07:34:00,39.7,38.7,30.20,NW,317,0.0,0.0,96,0.00,,,0.00,Wunderground v.1.15,2013-09-15 11:34:00,
2013-09-15 07:41:00,40.4,39.4,30.20,NW,317,0.0,0.0,96,0.00,,,0.00,Wunderground v.1.15,2013-09-15 11:41:00,
2013-09-15 07:47:00,41.5,40.4,30.20,NW,317,0.0,0.0,96,0.00,,,0.00,Wunderground v.1.15,2013-09-15 11:47:00,
2013-09-15 07:52:00,42.6,41.8,30.20,NW,317,0.0,0.0,97,0.00,,,0.00,Wunderground v.1.15,2013-09-15 11:52:00,
2013-09-15 07:58:00,44.1,43.3,30.21,NW,317,0.0,0.0,97,0.00,,,0.00,Wunderground v.1.15,2013-09-15 11:58:00,
2013-09-15 08:03:00,45.9,45.1,30.21,NW,317,0.0,0.0,97,0.00,,,0.00,Wunderground v.1.15,2013-09-15 12:03:00,
2013-09-15 08:09:00,47.6,46.8,30.21,NW,317,0.0,0.0,97,0.00,,,0.00,Wunderground v.1.15,2013-09-15 12:09:00,
2013-09-15 08:16:00,49.4,48.6,30.21,NW,317,0.0,0.0,97,0.00,,,0.00,Wunderground v.1.15,2013-09-15 12:16:00,
2013-09-15 08:21:00,50.2,49.4,30.21,NW,317,0.0,0.0,97,0.00,,,0.00,Wunderground v.1.15,2013-09-15 12:21:00,
2013-09-15 08:27:00,51.3,50.5,30.21,NW,317,0.0,0.0,97,0.00,,,0.00,Wunderground v.1.15,2013-09-15 12:27:00,
2013-09-15 08:32:00,52.2,50.8,30.21,NW,317,0.0,0.0,95,0.00,,,0.00,Wunderground v.1.15,2013-09-15 12:32:00,
2013-09-15 08:38:00,53.2,50.6,30.21,NW,317,0.0,0.0,91,0.00,,,0.00,Wunderground v.1.15,2013-09-15 12:38:00,
2013-09-15 08:44:00,54.1,50.6,30.21,NW,317,0.0,0.0,88,0.00,,,0.00,Wunderground v.1.15,2013-09-15 12:44:00,
2013-09-15 08:49:00,55.0,50.9,30.21,NW,317,0.0,0.0,86,0.00,,,0.00,Wunderground v.1.15,2013-09-15 12:49:00,
2013-09-15 08:55:00,56.1,51.0,30.21,NW,317,0.0,0.0,83,0.00,,,0.00,Wunderground v.1.15,2013-09-15 12:55:00,
2013-09-15 09:00:00,57.0,51.6,30.21,NW,317,0.0,0.0,82,0.00,,,0.00,Wunderground v.1.15,2013-09-15 13:00:00,
2013-09-15 09:06:00,58.1,51.3,30.21,NW,317,0.0,1.0,78,0.00,,,0.00,Wunderground v.1.15,2013-09-15 13:06:00,
2013-09-15 09:12:00,58.8,51.2,30.21,NW,317,0.0,1.0,76,0.00,,,0.00,Wunderground v.1.15,2013-09-15 13:12:00,
2013-09-15 09:17:00,59.7,51.4,30.21,NW,317,0.0,1.0,74,0.00,,,0.00,Wunderground v.1.15,2013-09-15 13:17:00,
2013-09-15 09:22:00,60.2,51.1,30.21,NW,317,0.0,1.0,72,0.00,,,0.00,Wunderground v.1.15,2013-09-15 13:22:00,
2013-09-15 09:27:00,60.8,51.3,30.21,NW,317,0.0,3.0,71,0.00,,,0.00,Wunderground v.1.15,2013-09-15 13:27:00,
2013-09-15 09:34:00,61.2,51.3,30.21,ESE,119,1.0,2.0,70,0.00,,,0.00,Wunderground v.1.15,2013-09-15 13:34:00,
2013-09-15 09:40:00,61.6,50.9,30.21,ESE,119,1.0,1.0,68,0.00,,,0.00,Wunderground v.1.15,2013-09-15 13:40:00,
2013-09-15 09:46:00,62.1,51.4,30.21,NNW,331,1.0,3.0,68,0.00,,,0.00,Wunderground v.1.15,2013-09-15 13:46:00,
2013-09-15 09:51:00,62.9,52.2,30.20,NNW,331,0.0,0.0,68,0.00,,,0.00,Wunderground v.1.15,2013-09-15 13:51:00,
2013-09-15 09:56:00,63.5,51.9,30.20,ENE,63,1.0,3.0,66,0.00,,,0.00,Wunderground v.1.15,2013-09-15 13:56:00,
2013-09-15 10:02:00,63.8,51.4,30.20,ENE,61,1.0,2.0,64,0.00,,,0.00,Wunderground v.1.15,2013-09-15 14:02:00,
2013-09-15 10:07:00,63.9,51.1,30.20,East,90,1.0,2.0,63,0.00,,,0.00,Wunderground v.1.15,2013-09-15 14:07:00,
2013-09-15 10:13:00,64.2,50.9,30.20,NW,325,2.0,3.0,62,0.00,,,0.00,Wunderground v.1.15,2013-09-15 14:13:00,
2013-09-15 10:19:00,64.8,51.5,30.20,NW,325,1.0,3.0,62,0.00,,,0.00,Wunderground v.1.15,2013-09-15 14:19:00,
2013-09-15 10:25:00,65.2,51.4,30.20,SE,128,1.0,2.0,61,0.00,,,0.00,Wunderground v.1.15,2013-09-15 14:25:00,
2013-09-15 10:30:00,65.6,51.8,30.20,East,95,1.0,2.0,61,0.00,,,0.00,Wunderground v.1.15,2013-09-15 14:30:00,
2013-09-15 10:36:00,66.0,51.7,30.20,East,97,1.0,2.0,60,0.00,,,0.00,Wunderground v.1.15,2013-09-15 14:36:00,
2013-09-15 10:41:00,66.3,52.0,30.20,NNE,19,1.0,1.0,60,0.00,,,0.00,Wunderground v.1.15,2013-09-15 14:41:00,
2013-09-15 10:47:00,66.4,50.7,30.20,ESE,102,1.0,7.0,57,0.00,,,0.00,Wunderground v.1.15,2013-09-15 14:47:00,
2013-09-15 10:52:00,66.3,51.1,30.20,SSW,193,2.0,2.0,58,0.00,,,0.00,Wunderground v.1.15,2013-09-15 14:52:00,
2013-09-15 10:57:00,66.3,51.5,30.19,ENE,74,2.0,8.0,59,0.00,,,0.00,Wunderground v.1.15,2013-09-15 14:57:00,
2013-09-15 11:02:00,67.2,51.4,30.19,ESE,109,1.0,3.0,57,0.00,,,0.00,Wunderground v.1.15,2013-09-15 15:02:00,
2013-09-15 11:08:00,67.8,51.0,30.19,East,88,2.0,3.0,55,0.00,,,0.00,Wunderground v.1.15,2013-09-15 15:08:00,
2013-09-15 11:13:00,67.9,51.6,30.19,ESE,118,3.0,3.0,56,0.00,,,0.00,Wunderground v.1.15,2013-09-15 15:13:00,
2013-09-15 11:19:00,68.2,51.4,30.19,ESE,121,2.0,7.0,55,0.00,,,0.00,Wunderground v.1.15,2013-09-15 15:19:00,
2013-09-15 11:24:00,68.5,52.2,30.18,NNE,25,1.0,3.0,56,0.00,,,0.00,Wunderground v.1.15,2013-09-15 15:24:00,
2013-09-15 11:29:00,68.9,52.1,30.18,ENE,66,1.0,3.0,55,0.00,,,0.00,Wunderground v.1.15,2013-09-15 15:29:00,
2013-09-15 11:34:00,69.5,52.1,30.18,ENE,70,2.0,4.0,54,0.00,,,0.00,Wunderground v.1.15,2013-09-15 15:34:00,
2013-09-15 11:40:00,69.7,52.8,30.18,SW,232,1.0,4.0,55,0.00,,,0.00,Wunderground v.1.15,2013-09-15 15:40:00,
2013-09-15 11:45:00,70.2,51.7,30.18,WNW,287,2.0,5.0,52,0.00,,,0.00,Wunderground v.1.15,2013-09-15 15:45:00,
2013-09-15 11:51:00,70.6,53.6,30.18,NW,317,2.0,2.0,55,0.00,,,0.00,Wunderground v.1.15,2013-09-15 15:51:00,
2013-09-15 11:56:00,69.9,52.0,30.17,WNW,299,2.0,5.0,53,0.00,,,0.00,Wunderground v.1.15,2013-09-15 15:56:00,
2013-09-15 12:02:00,70.6,53.1,30.17,NW,325,3.0,4.0,54,0.00,,,0.00,Wunderground v.1.15,2013-09-15 16:02:00,
2013-09-15 12:07:00,71.6,53.6,30.17,WSW,238,2.0,4.0,53,0.00,,,0.00,Wunderground v.1.15,2013-09-15 16:07:00,
2013-09-15 12:12:00,71.6,52.5,30.17,NW,308,1.0,4.0,51,0.00,,,0.00,Wunderground v.1.15,2013-09-15 16:12:00,
2013-09-15 12:20:00,71.7,52.6,30.17,East,80,1.0,2.0,51,0.00,,,0.00,Wunderground v.1.15,2013-09-15 16:20:00,
2013-09-15 12:25:00,72.2,52.5,30.17,West,281,1.0,2.0,50,0.00,,,0.00,Wunderground v.1.15,2013-09-15 16:25:00,
2013-09-15 12:30:00,71.9,52.8,30.16,WNW,298,1.0,1.0,51,0.00,,,0.00,Wunderground v.1.15,2013-09-15 16:30:00,
2013-09-15 12:36:00,72.1,53.0,30.16,WNW,294,1.0,3.0,51,0.00,,,0.00,Wunderground v.1.15,2013-09-15 16:36:00,
2013-09-15 12:42:00,72.0,53.4,30.16,WNW,294,1.0,2.0,52,0.00,,,0.00,Wunderground v.1.15,2013-09-15 16:42:00,
2013-09-15 12:47:00,72.4,53.2,30.16,West,274,1.0,3.0,51,0.00,,,0.00,Wunderground v.1.15,2013-09-15 16:47:00,
2013-09-15 12:53:00,73.4,53.1,30.15,East,94,2.0,3.0,49,0.00,,,0.00,Wunderground v.1.15,2013-09-15 16:53:00,
2013-09-15 12:58:00,73.8,54.0,30.15,NNW,348,1.0,3.0,50,0.00,,,0.00,Wunderground v.1.15,2013-09-15 16:58:00,
2013-09-15 13:03:00,74.1,53.2,30.15,North,5,1.0,2.0,48,0.00,,,0.00,Wunderground v.1.15,2013-09-15 17:03:00,
2013-09-15 13:10:00,73.6,52.7,30.15,SE,138,1.0,2.0,48,0.00,,,0.00,Wunderground v.1.15,2013-09-15 17:10:00,
2013-09-15 13:15:00,73.6,53.8,30.14,ESE,103,2.0,5.0,50,0.00,,,0.00,Wunderground v.1.15,2013-09-15 17:15:00,
2013-09-15 13:21:00,74.5,52.9,30.14,ENE,71,2.0,4.0,47,0.00,,,0.00,Wunderground v.1.15,2013-09-15 17:21:00,
2013-09-15 13:26:00,75.2,53.0,30.14,SSE,148,1.0,4.0,46,0.00,,,0.00,Wunderground v.1.15,2013-09-15 17:26:00,
2013-09-15 13:32:00,75.2,53.6,30.14,NW,315,2.0,2.0,47,0.00,,,0.00,Wunderground v.1.15,2013-09-15 17:32:00,
2013-09-15 13:37:00,74.9,52.7,30.13,East,94,3.0,5.0,46,0.00,,,0.00,Wunderground v.1.15,2013-09-15 17:37:00,
2013-09-15 13:42:00,75.1,53.5,30.13,NNW,340,2.0,3.0,47,0.00,,,0.00,Wunderground v.1.15,2013-09-15 17:42:00,
2013-09-15 13:48:00,75.0,52.2,30.13,East,92,1.0,3.0,45,0.00,,,0.00,Wunderground v.1.15,2013-09-15 17:48:00,
2013-09-15 13:53:00,75.3,53.7,30.13,ESE,111,1.0,4.0,47,0.00,,,0.00,Wunderground v.1.15,2013-09-15 17:53:00,
2013-09-15 13:59:00,75.0,52.2,30.13,East,94,2.0,5.0,45,0.00,,,0.00,Wunderground v.1.15,2013-09-15 17:59:00,
2013-09-15 14:05:00,74.8,52.6,30.12,East,96,2.0,3.0,46,0.00,,,0.00,Wunderground v.1.15,2013-09-15 18:05:00,
2013-09-15 14:10:00,74.8,52.6,30.12,NNW,348,1.0,3.0,46,0.00,,,0.00,Wunderground v.1.15,2013-09-15 18:10:00,
2013-09-15 14:16:00,75.0,52.8,30.12,NW,325,1.0,3.0,46,0.00,,,0.00,Wunderground v.1.15,2013-09-15 18:16:00,
2013-09-15 14:21:00,75.2,54.2,30.11,WNW,300,2.0,3.0,48,0.00,,,0.00,Wunderground v.1.15,2013-09-15 18:21:00,
2013-09-15 14:26:00,75.1,53.5,30.11,NW,311,3.0,7.0,47,0.00,,,0.00,Wunderground v.1.15,2013-09-15 18:26:00,
2013-09-15 14:32:00,76.0,54.9,30.11,NW,315,3.0,3.0,48,0.00,,,0.00,Wunderground v.1.15,2013-09-15 18:32:00,
2013-09-15 14:37:00,76.6,53.1,30.11,WNW,292,2.0,7.0,44,0.00,,,0.00,Wunderground v.1.15,2013-09-15 18:37:00,
2013-09-15 14:42:00,77.0,54.0,30.10,West,261,2.0,3.0,45,0.00,,,0.00,Wunderground v.1.15,2013-09-15 18:42:00,
2013-09-15 14:49:00,76.4,53.5,30.10,NW,307,3.0,8.0,45,0.00,,,0.00,Wunderground v.1.15,2013-09-15 18:49:00,
2013-09-15 14:55:00,76.2,53.3,30.10,WNW,298,2.0,4.0,45,0.00,,,0.00,Wunderground v.1.15,2013-09-15 18:55:00,
2013-09-15 15:01:00,75.8,53.5,30.10,NW,304,1.0,1.0,46,0.00,,,0.00,Wunderground v.1.15,2013-09-15 19:01:00,
2013-09-15 15:06:00,76.2,53.9,30.09,NW,320,2.0,2.0,46,0.00,,,0.00,Wunderground v.1.15,2013-09-15 19:06:00,
2013-09-15 15:12:00,77.1,55.3,30.09,WNW,293,2.0,3.0,47,0.00,,,0.00,Wunderground v.1.15,2013-09-15 19:12:00,
2013-09-15 15:17:00,77.5,53.2,30.09,NW,315,2.0,8.0,43,0.00,,,0.00,Wunderground v.1.15,2013-09-15 19:17:00,
2013-09-15 15:19:00,77.5,54.5,30.08,NW,315,2.0,8.0,45,0.00,,,0.00,Wunderground v.1.15,2013-09-15 19:19:00,
2013-09-15 15:24:00,78.1,54.4,30.08,ESE,112,1.0,2.0,44,0.00,,,0.00,Wunderground v.1.15,2013-09-15 19:24:00,
2013-09-15 15:29:00,77.8,53.5,30.08,ESE,103,1.0,3.0,43,0.00,,,0.00,Wunderground v.1.15,2013-09-15 19:29:00,
2013-09-15 15:35:00,77.8,54.8,30.08,NNW,339,1.0,1.0,45,0.00,,,0.00,Wunderground v.1.15,2013-09-15 19:35:00,
2013-09-15 15:41:00,77.7,54.7,30.08,East,90,2.0,2.0,45,0.00,,,0.00,Wunderground v.1.15,2013-09-15 19:41:00,
2013-09-15 15:47:00,77.6,55.2,30.07,East,92,2.0,2.0,46,0.00,,,0.00,Wunderground v.1.15,2013-09-15 19:47:00,
2013-09-15 15:52:00,78.0,55.5,30.07,East,92,1.0,1.0,46,0.00,,,0.00,Wunderground v.1.15,2013-09-15 19:52:00,
2013-09-15 15:57:00,78.5,55.4,30.07,ENE,78,1.0,7.0,45,0.00,,,0.00,Wunderground v.1.15,2013-09-15 19:57:00,
2013-09-15 16:03:00,78.3,55.8,30.07,ENE,77,1.0,1.0,46,0.00,,,0.00,Wunderground v.1.15,2013-09-15 20:03:00,
2013-09-15 16:09:00,77.9,56.0,30.07,SE,142,1.0,5.0,47,0.00,,,0.00,Wunderground v.1.15,2013-09-15 20:09:00,
2013-09-15 16:16:00,78.1,55.6,30.07,WNW,301,1.0,2.0,46,0.00,,,0.00,Wunderground v.1.15,2013-09-15 20:16:00,
2013-09-15 16:21:00,78.8,55.7,30.07,NW,313,1.0,1.0,45,0.00,,,0.00,Wunderground v.1.15,2013-09-15 20:21:00,
2013-09-15 16:26:00,79.0,55.2,30.07,ESE,123,1.0,2.0,44,0.00,,,0.00,Wunderground v.1.15,2013-09-15 20:26:00,
2013-09-15 16:31:00,78.5,54.8,30.06,NNW,338,1.0,1.0,44,0.00,,,0.00,Wunderground v.1.15,2013-09-15 20:31:00,
2013-09-15 16:36:00,78.1,55.0,30.07,North,5,1.0,1.0,45,0.00,,,0.00,Wunderground v.1.15,2013-09-15 20:36:00,
2013-09-15 16:42:00,78.3,56.4,30.06,ESE,103,1.0,4.0,47,0.00,,,0.00,Wunderground v.1.15,2013-09-15 20:42:00,
2013-09-15 16:47:00,77.7,57.0,30.06,SE,130,2.0,7.0,49,0.00,,,0.00,Wunderground v.1.15,2013-09-15 20:47:00,
2013-09-15 16:53:00,77.1,55.3,30.06,NNE,17,3.0,3.0,47,0.00,,,0.00,Wunderground v.1.15,2013-09-15 20:53:00,
2013-09-15 16:58:00,77.1,55.9,30.06,NNW,333,1.0,3.0,48,0.00,,,0.00,Wunderground v.1.15,2013-09-15 20:58:00,
2013-09-15 17:04:00,77.1,55.9,30.05,ENE,61,0.0,1.0,48,0.00,,,0.00,Wunderground v.1.15,2013-09-15 21:04:00,
2013-09-15 17:09:00,76.3,56.3,30.05,East,97,1.0,4.0,50,0.00,,,0.00,Wunderground v.1.15,2013-09-15 21:09:00,
2013-09-15 17:14:00,76.1,56.7,30.05,East,97,1.0,1.0,51,0.00,,,0.00,Wunderground v.1.15,2013-09-15 21:14:00,
2013-09-15 17:19:00,75.9,56.5,30.05,East,97,1.0,2.0,51,0.00,,,0.00,Wunderground v.1.15,2013-09-15 21:19:00,
2013-09-15 17:26:00,75.8,56.4,30.05,East,97,1.0,2.0,51,0.00,,,0.00,Wunderground v.1.15,2013-09-15 21:26:00,
2013-09-15 17:35:00,75.4,56.5,30.05,ESE,105,1.0,3.0,52,0.00,,,0.00,Wunderground v.1.15,2013-09-15 21:35:00,
2013-09-15 17:40:00,74.9,56.6,30.05,ENE,68,2.0,3.0,53,0.00,,,0.00,Wunderground v.1.15,2013-09-15 21:40:00,
2013-09-15 17:46:00,74.9,57.1,30.05,ENE,68,1.0,2.0,54,0.00,,,0.00,Wunderground v.1.15,2013-09-15 21:46:00,
2013-09-15 17:52:00,74.3,56.6,30.05,ESE,103,1.0,1.0,54,0.00,,,0.00,Wunderground v.1.15,2013-09-15 21:52:00,
2013-09-15 17:57:00,74.1,56.9,30.05,ESE,103,1.0,1.0,55,0.00,,,0.00,Wunderground v.1.15,2013-09-15 21:57:00,
2013-09-15 18:04:00,73.8,56.6,30.05,East,90,1.0,1.0,55,0.00,,,0.00,Wunderground v.1.15,2013-09-15 22:04:00,
2013-09-15 18:10:00,73.8,57.1,30.05,East,91,1.0,3.0,56,0.00,,,0.00,Wunderground v.1.15,2013-09-15 22:10:00,
2013-09-15 18:16:00,73.6,57.4,30.05,East,90,1.0,1.0,57,0.00,,,0.00,Wunderground v.1.15,2013-09-15 22:16:00,
2013-09-15 18:21:00,73.4,57.7,30.05,ESE,117,0.0,0.0,58,0.00,,,0.00,Wunderground v.1.15,2013-09-15 22:21:00,
2013-09-15 18:27:00,73.3,57.6,30.05,ENE,67,0.0,2.0,58,0.00,,,0.00,Wunderground v.1.15,2013-09-15 22:27:00,
2013-09-15 18:32:00,72.9,57.7,30.05,ESE,122,1.0,1.0,59,0.00,,,0.00,Wunderground v.1.15,2013-09-15 22:32:00,
2013-09-15 18:38:00,72.4,57.7,30.05,ESE,121,1.0,2.0,60,0.00,,,0.00,Wunderground v.1.15,2013-09-15 22:38:00,
2013-09-15 18:43:00,72.1,57.9,30.05,ESE,121,1.0,1.0,61,0.00,,,0.00,Wunderground v.1.15,2013-09-15 22:43:00,
2013-09-15 18:49:00,71.8,57.6,30.05,ESE,121,0.0,1.0,61,0.00,,,0.00,Wunderground v.1.15,2013-09-15 22:49:00,
2013-09-15 18:54:00,71.5,57.8,30.05,ESE,103,1.0,1.0,62,0.00,,,0.00,Wunderground v.1.15,2013-09-15 22:54:00,
2013-09-15 18:59:00,71.1,57.4,30.05,East,84,0.0,3.0,62,0.00,,,0.00,Wunderground v.1.15,2013-09-15 22:59:00,
2013-09-15 19:05:00,70.8,57.6,30.05,East,84,1.0,1.0,63,0.00,,,0.00,Wunderground v.1.15,2013-09-15 23:05:00,
2013-09-15 19:10:00,70.5,57.7,30.05,East,84,0.0,0.0,64,0.00,,,0.00,Wunderground v.1.15,2013-09-15 23:10:00,
2013-09-15 19:16:00,70.2,57.9,30.05,East,84,0.0,0.0,65,0.00,,,0.00,Wunderground v.1.15,2013-09-15 23:16:00,
2013-09-15 19:21:00,69.8,57.5,30.05,East,84,0.0,0.0,65,0.00,,,0.00,Wunderground v.1.15,2013-09-15 23:21:00,
2013-09-15 19:27:00,69.4,57.5,30.05,East,84,0.0,0.0,66,0.00,,,0.00,Wunderground v.1.15,2013-09-15 23:27:00,
2013-09-15 19:32:00,68.9,57.5,30.05,East,84,0.0,0.0,67,0.00,,,0.00,Wunderground v.1.15,2013-09-15 23:32:00,
2013-09-15 19:38:00,68.5,57.5,30.05,East,84,0.0,0.0,68,0.00,,,0.00,Wunderground v.1.15,2013-09-15 23:38:00,
2013-09-15 19:43:00,68.3,57.3,30.05,East,84,0.0,0.0,68,0.00,,,0.00,Wunderground v.1.15,2013-09-15 23:43:00,
2013-09-15 19:49:00,67.9,57.4,30.05,East,84,0.0,0.0,69,0.00,,,0.00,Wunderground v.1.15,2013-09-15 23:49:00,
2013-09-15 19:54:00,67.5,57.4,30.05,East,84,0.0,0.0,70,0.00,,,0.00,Wunderground v.1.15,2013-09-15 23:54:00,
2013-09-15 20:01:00,67.0,57.3,30.05,East,84,0.0,0.0,71,0.00,,,0.00,Wunderground v.1.15,2013-09-16 00:01:00,
2013-09-15 20:06:00,66.7,57.4,30.05,East,84,0.0,0.0,72,0.00,,,0.00,Wunderground v.1.15,2013-09-16 00:06:00,
2013-09-15 20:11:00,66.3,57.0,30.05,East,84,0.0,0.0,72,0.00,,,0.00,Wunderground v.1.15,2013-09-16 00:11:00,
2013-09-15 20:16:00,65.7,57.2,30.05,East,84,0.0,0.0,74,0.00,,,0.00,Wunderground v.1.15,2013-09-16 00:16:00,
2013-09-15 20:22:00,64.8,56.7,30.05,East,84,0.0,0.0,75,0.00,,,0.00,Wunderground v.1.15,2013-09-16 00:22:00,
2013-09-15 20:27:00,64.1,56.4,30.05,East,84,0.0,0.0,76,0.00,,,0.00,Wunderground v.1.15,2013-09-16 00:27:00,
2013-09-15 20:32:00,63.6,56.3,30.05,East,84,0.0,0.0,77,0.00,,,0.00,Wunderground v.1.15,2013-09-16 00:32:00,
2013-09-15 20:39:00,63.0,56.0,30.05,East,84,0.0,0.0,78,0.00,,,0.00,Wunderground v.1.15,2013-09-16 00:39:00,
2013-09-15 20:44:00,62.5,55.9,30.05,East,84,0.0,0.0,79,0.00,,,0.00,Wunderground v.1.15,2013-09-16 00:44:00,
2013-09-15 20:50:00,62.0,55.8,30.06,East,84,0.0,0.0,80,0.00,,,0.00,Wunderground v.1.15,2013-09-16 00:50:00,
2013-09-15 20:56:00,61.3,55.4,30.06,East,84,0.0,0.0,81,0.00,,,0.00,Wunderground v.1.15,2013-09-16 00:56:00,
2013-09-15 21:02:00,60.7,55.2,30.06,East,84,0.0,0.0,82,0.00,,,0.00,Wunderground v.1.15,2013-09-16 01:02:00,
2013-09-15 21:07:00,59.9,55.1,30.06,East,84,0.0,0.0,84,0.00,,,0.00,Wunderground v.1.15,2013-09-16 01:07:00,
2013-09-15 21:13:00,59.6,55.1,30.06,East,84,0.0,0.0,85,0.00,,,0.00,Wunderground v.1.15,2013-09-16 01:13:00,
2013-09-15 21:20:00,59.5,55.3,30.06,East,84,0.0,0.0,86,0.00,,,0.00,Wunderground v.1.15,2013-09-16 01:20:00,
2013-09-15 21:26:00,59.6,55.7,30.06,East,84,0.0,0.0,87,0.00,,,0.00,Wunderground v.1.15,2013-09-16 01:26:00,
2013-09-15 21:32:00,59.6,55.7,30.06,East,84,0.0,0.0,87,0.00,,,0.00,Wunderground v.1.15,2013-09-16 01:32:00,
2013-09-15 21:38:00,59.7,56.1,30.06,East,84,0.0,0.0,88,0.00,,,0.00,Wunderground v.1.15,2013-09-16 01:38:00,
2013-09-15 21:43:00,59.8,56.2,30.06,East,84,0.0,0.0,88,0.00,,,0.00,Wunderground v.1.15,2013-09-16 01:43:00,
2013-09-15 21:49:00,59.9,56.3,30.06,East,84,0.0,0.0,88,0.00,,,0.00,Wunderground v.1.15,2013-09-16 01:49:00,
2013-09-15 21:55:00,60.0,56.4,30.06,East,84,0.0,0.0,88,0.00,,,0.00,Wunderground v.1.15,2013-09-16 01:55:00,
2013-09-15 22:01:00,60.1,56.5,30.06,East,84,0.0,0.0,88,0.00,,,0.00,Wunderground v.1.15,2013-09-16 02:01:00,
2013-09-15 22:06:00,60.2,56.6,30.06,East,84,0.0,0.0,88,0.00,,,0.00,Wunderground v.1.15,2013-09-16 02:06:00,
2013-09-15 22:13:00,60.2,56.6,30.07,East,84,0.0,0.0,88,0.00,,,0.00,Wunderground v.1.15,2013-09-16 02:13:00,
2013-09-15 22:19:00,60.5,56.9,30.07,East,84,0.0,0.0,88,0.00,,,0.00,Wunderground v.1.15,2013-09-16 02:19:00,
2013-09-15 22:24:00,60.8,56.9,30.06,East,84,0.0,1.0,87,0.00,,,0.00,Wunderground v.1.15,2013-09-16 02:24:00,
2013-09-15 22:29:00,60.9,56.7,30.06,East,84,0.0,1.0,86,0.00,,,0.00,Wunderground v.1.15,2013-09-16 02:29:00,
2013-09-15 22:34:00,60.9,56.7,30.06,East,84,0.0,0.0,86,0.00,,,0.00,Wunderground v.1.15,2013-09-16 02:34:00,
2013-09-15 22:40:00,60.9,56.7,30.06,East,84,0.0,0.0,86,0.00,,,0.00,Wunderground v.1.15,2013-09-16 02:40:00,
2013-09-15 22:46:00,60.8,56.6,30.06,East,84,0.0,0.0,86,0.00,,,0.00,Wunderground v.1.15,2013-09-16 02:46:00,
2013-09-15 22:51:00,60.7,56.5,30.06,East,84,0.0,0.0,86,0.00,,,0.00,Wunderground v.1.15,2013-09-16 02:51:00,
2013-09-15 22:56:00,60.7,56.8,30.06,East,84,0.0,0.0,87,0.00,,,0.00,Wunderground v.1.15,2013-09-16 02:56:00,
2013-09-15 23:02:00,60.6,56.7,30.06,East,84,0.0,0.0,87,0.00,,,0.00,Wunderground v.1.15,2013-09-16 03:02:00,
2013-09-15 23:07:00,60.5,56.6,30.06,East,84,0.0,0.0,87,0.00,,,0.00,Wunderground v.1.15,2013-09-16 03:07:00,
2013-09-15 23:13:00,60.5,56.6,30.06,East,84,0.0,0.0,87,0.00,,,0.00,Wunderground v.1.15,2013-09-16 03:13:00,
2013-09-15 23:19:00,60.4,56.5,30.06,East,84,0.0,0.0,87,0.00,,,0.00,Wunderground v.1.15,2013-09-16 03:19:00,
2013-09-15 23:25:00,60.0,56.1,30.06,East,84,0.0,0.0,87,0.00,,,0.00,Wunderground v.1.15,2013-09-16 03:25:00,
2013-09-15 23:31:00,59.8,55.9,30.06,East,84,0.0,0.0,87,0.00,,,0.00,Wunderground v.1.15,2013-09-16 03:31:00,
2013-09-15 23:36:00,59.5,55.6,30.06,East,84,0.0,0.0,87,0.00,,,0.00,Wunderground v.1.15,2013-09-16 03:36:00,
2013-09-15 23:41:00,59.2,55.6,30.06,East,84,0.0,0.0,88,0.00,,,0.00,Wunderground v.1.15,2013-09-16 03:41:00,
2013-09-15 23:46:00,59.0,55.4,30.06,East,84,0.0,0.0,88,0.00,,,0.00,Wunderground v.1.15,2013-09-16 03:46:00,
2013-09-15 23:53:00,58.6,55.4,30.05,East,84,0.0,0.0,89,0.00,,,0.00,Wunderground v.1.15,2013-09-16 03:53:00,
2013-09-15 23:58:00,58.5,55.3,30.06,East,84,0.0,0.0,89,0.00,,,0.00,Wunderground v.1.15,2013-09-16 03:58:00,